Time;durP1;ratioP1;P1;durP2;ratioP2;P2;SDS_P1;SDS_P2;PMS_P1;PMS_P2;Temp;Humidity;BMP_temperature;BMP_pressure;BME280_temperature;BME280_humidity;BME280_pressure;Samples;Min_cycle;Max_cycle;Signal;HPM_P1;HPM_P2
2022/01/20 00:01:11;;;;;;;22.53;3.53;;;;;;;;;;5048350;28;20041;-71
2022/01/20 00:03:38;;;;;;;24.98;3.75;;;;;;;;;;5045810;28;20355;-74
2022/01/20 00:28:08;;;;;;;25.73;3.53;;;;;;;;;;5045735;28;20040;-73
2022/01/20 00:35:29;;;;;;;26.17;3.42;;;;;;;;;;5035107;28;20390;-73
2022/01/20 00:37:55;;;;;;;21.80;3.50;;;;;;;;;;5037366;28;20029;-73
2022/01/20 00:40:21;;;;;;;22.88;3.38;;;;;;;;;;5032651;28;20441;-72
2022/01/20 00:42:47;;;;;;;25.83;3.05;;;;;;;;;;5046886;28;20033;-74
2022/01/20 00:45:13;;;;;;;31.85;4.57;;;;;;;;;;5047534;28;20044;-74
2022/01/20 00:47:39;;;;;;;20.10;4.13;;;;;;;;;;5049204;28;20029;-72
2022/01/20 00:50:07;;;;;;;18.30;3.20;;;;;;;;;;5049680;28;20103;-74
2022/01/20 00:52:32;;;;;;;17.38;3.13;;;;;;;;;;5047863;28;20068;-73
2022/01/20 00:54:58;;;;;;;19.85;2.30;;;;;;;;;;5053546;28;20460;-73
2022/01/20 00:57:24;;;;;;;31.13;3.20;;;;;;;;;;5029924;28;20124;-71
2022/01/20 00:59:49;;;;;;;24.17;3.15;;;;;;;;;;5043019;28;20080;-71
2022/01/20 01:02:14;;;;;;;33.33;2.88;;;;;;;;;;5044188;28;20124;-73
2022/01/20 01:04:41;;;;;;;19.83;3.10;;;;;;;;;;5038997;28;20036;-73
2022/01/20 01:09:51;;;;;;;19.63;3.00;;;;;;;;;;5061929;28;20040;-70
2022/01/20 01:12:26;;;;;;;22.50;2.85;;;;;;;;;;5053256;28;20025;-72
2022/01/20 01:14:53;;;;;;;18.20;2.72;;;;;;;;;;5051959;28;20052;-70
2022/01/20 01:24:45;;;;;;;22.60;3.10;;;;;;;;;;5035800;28;20041;-73
2022/01/20 01:27:13;;;;;;;26.52;4.18;;;;;;;;;;5054181;28;20843;-72
2022/01/20 01:32:41;;;;;;;13.35;1.90;;;;;;;;;;5052715;28;20095;-72
2022/01/20 01:35:09;;;;;;;21.90;2.83;;;;;;;;;;5052714;28;20076;-72
2022/01/20 01:38:22;;;;;;;20.80;2.75;;;;;;;;;;5058076;28;20036;-72
2022/01/20 01:40:26;;;;;;;24.77;3.28;;;;;;;;;;5053521;28;20425;-72
2022/01/20 01:42:53;;;;;;;19.77;2.97;;;;;;;;;;5040244;28;20060;-71
2022/01/20 01:45:35;;;;;;;26.52;3.28;;;;;;;;;;5048294;28;20052;-72
2022/01/20 01:48:03;;;;;;;20.70;3.17;;;;;;;;;;5041337;28;20036;-72
2022/01/20 01:50:29;;;;;;;14.68;2.97;;;;;;;;;;5054428;28;20024;-72
2022/01/20 01:53:00;;;;;;;17.85;2.83;;;;;;;;;;5062062;28;20536;-70
2022/01/20 01:55:26;;;;;;;17.85;2.90;;;;;;;;;;5048039;28;20106;-73
2022/01/20 01:57:52;;;;;;;16.58;3.05;;;;;;;;;;5042702;28;20044;-73
2022/01/20 02:00:19;;;;;;;17.38;2.92;;;;;;;;;;5052323;28;21668;-72
2022/01/20 02:02:45;;;;;;;17.42;3.03;;;;;;;;;;5051568;28;20053;-72
2022/01/20 02:05:13;;;;;;;15.30;2.30;;;;;;;;;;5050933;28;20474;-71
2022/01/20 02:20:54;;;;;;;11.57;1.92;;;;;;;;;;5051058;28;20087;-72
2022/01/20 02:23:19;;;;;;;14.27;2.42;;;;;;;;;;5038408;28;20475;-71
2022/01/20 02:25:46;;;;;;;19.35;2.53;;;;;;;;;;5042626;28;20033;-71
2022/01/20 02:28:12;;;;;;;18.15;3.22;;;;;;;;;;5046282;28;20036;-71
2022/01/20 02:30:40;;;;;;;8.60;1.73;;;;;;;;;;5036983;28;20029;-71
2022/01/20 02:33:09;;;;;;;8.80;2.13;;;;;;;;;;5048671;28;20029;-71
2022/01/20 02:35:38;;;;;;;12.52;2.22;;;;;;;;;;5058596;28;20043;-70
2022/01/20 02:39:10;;;;;;;10.55;2.08;;;;;;;;;;5051596;28;20029;-71
2022/01/20 02:46:31;;;;;;;12.13;1.90;;;;;;;;;;5048998;28;20055;-70
2022/01/20 02:48:58;;;;;;;10.93;2.50;;;;;;;;;;5051553;28;20402;-73
2022/01/20 02:51:23;;;;;;;14.00;3.13;;;;;;;;;;5053163;28;20364;-70
2022/01/20 02:53:49;;;;;;;14.18;2.13;;;;;;;;;;5037221;28;20116;-70
2022/01/20 02:56:14;;;;;;;15.88;2.75;;;;;;;;;;5030860;28;20068;-70
2022/01/20 02:58:41;;;;;;;14.98;2.13;;;;;;;;;;5045792;28;20041;-70
2022/01/20 03:01:07;;;;;;;13.80;1.95;;;;;;;;;;5051686;28;20048;-71
2022/01/20 03:03:34;;;;;;;17.27;3.20;;;;;;;;;;5046022;28;20033;-70
2022/01/20 03:05:59;;;;;;;14.05;2.67;;;;;;;;;;5037629;28;20033;-74
2022/01/20 03:08:25;;;;;;;14.60;1.95;;;;;;;;;;5051913;28;20104;-70
2022/01/20 03:10:51;;;;;;;10.43;2.08;;;;;;;;;;5049136;28;20049;-70
2022/01/20 03:13:17;;;;;;;8.07;1.85;;;;;;;;;;5032863;28;20365;-70
2022/01/20 03:15:43;;;;;;;16.02;2.15;;;;;;;;;;5039623;28;20516;-69
2022/01/20 03:18:09;;;;;;;14.00;2.60;;;;;;;;;;5050989;28;20037;-70
2022/01/20 03:20:34;;;;;;;6.68;1.90;;;;;;;;;;5051655;28;20319;-70
2022/01/20 03:23:01;;;;;;;13.45;2.05;;;;;;;;;;5049938;28;20544;-74
2022/01/20 03:25:27;;;;;;;8.10;1.70;;;;;;;;;;5041456;28;20444;-70
2022/01/20 03:27:53;;;;;;;11.18;1.65;;;;;;;;;;5041191;28;20029;-69
2022/01/20 03:30:19;;;;;;;11.73;2.45;;;;;;;;;;5031544;28;20036;-69
2022/01/20 03:32:44;;;;;;;15.43;2.22;;;;;;;;;;5049477;28;20040;-69
2022/01/20 03:35:11;;;;;;;14.40;2.10;;;;;;;;;;5042952;28;20054;-69
2022/01/20 03:37:37;;;;;;;18.00;1.95;;;;;;;;;;5057438;28;20671;-69
2022/01/20 03:40:04;;;;;;;6.93;1.60;;;;;;;;;;5051262;28;20033;-73
2022/01/20 03:42:29;;;;;;;13.50;1.85;;;;;;;;;;5040977;28;20032;-70
2022/01/20 03:44:55;;;;;;;6.53;1.63;;;;;;;;;;5048728;28;20036;-69
2022/01/20 03:47:24;;;;;;;12.35;2.15;;;;;;;;;;5050562;28;20624;-71
2022/01/20 03:50:08;;;;;;;6.82;1.88;;;;;;;;;;5050853;28;20518;-70
2022/01/20 03:52:34;;;;;;;13.95;2.38;;;;;;;;;;5051382;28;20047;-70
2022/01/20 03:55:00;;;;;;;13.95;2.20;;;;;;;;;;5050428;28;20494;-71
2022/01/20 03:57:27;;;;;;;9.15;1.90;;;;;;;;;;5059650;28;20037;-70
2022/01/20 03:59:53;;;;;;;11.20;2.22;;;;;;;;;;5045484;28;20039;-70
2022/01/20 04:02:18;;;;;;;13.30;1.98;;;;;;;;;;5039807;28;20029;-71
2022/01/20 04:04:44;;;;;;;11.73;2.20;;;;;;;;;;5043646;28;20382;-71
2022/01/20 04:07:10;;;;;;;16.35;2.25;;;;;;;;;;5048760;28;20033;-71
2022/01/20 04:09:36;;;;;;;16.80;2.38;;;;;;;;;;5051083;28;20441;-70
2022/01/20 04:12:02;;;;;;;7.45;1.65;;;;;;;;;;5049282;28;20029;-73
2022/01/20 04:14:31;;;;;;;9.88;1.75;;;;;;;;;;5056779;28;20041;-70
2022/01/20 04:19:22;;;;;;;10.07;2.45;;;;;;;;;;5049399;28;20040;-71
2022/01/20 04:21:48;;;;;;;14.70;2.08;;;;;;;;;;5069556;28;20032;-71
2022/01/20 04:24:15;;;;;;;12.50;2.00;;;;;;;;;;5039613;28;20072;-72
2022/01/20 04:26:43;;;;;;;13.38;2.25;;;;;;;;;;5050815;28;20033;-71
2022/01/20 04:29:12;;;;;;;13.20;2.22;;;;;;;;;;5046372;28;20055;-71
2022/01/20 04:31:39;;;;;;;13.10;1.98;;;;;;;;;;5047571;28;20033;-71
2022/01/20 04:34:06;;;;;;;8.60;1.75;;;;;;;;;;5048122;28;20040;-72
2022/01/20 04:36:35;;;;;;;11.75;1.85;;;;;;;;;;5049947;28;20036;-71
2022/01/20 04:39:03;;;;;;;6.88;1.60;;;;;;;;;;5049458;28;20572;-71
2022/01/20 04:41:29;;;;;;;12.23;2.30;;;;;;;;;;5051109;28;20033;-71
2022/01/20 04:43:59;;;;;;;10.77;2.00;;;;;;;;;;5049045;28;20032;-72
2022/01/20 04:46:34;;;;;;;16.10;1.73;;;;;;;;;;5045292;28;20025;-70
2022/01/20 04:57:00;;;;;;;18.58;2.53;;;;;;;;;;5057814;28;20075;-72
2022/01/20 04:57:18;;;;;;;15.32;2.22;;;;;;;;;;5055030;28;20055;-74
2022/01/20 04:59:45;;;;;;;14.70;2.25;;;;;;;;;;5045109;28;20033;-74
2022/01/20 05:02:11;;;;;;;18.13;2.20;;;;;;;;;;5040832;28;20041;-73
2022/01/20 05:04:37;;;;;;;17.83;2.97;;;;;;;;;;5045653;28;20053;-72
2022/01/20 05:07:04;;;;;;;11.38;2.13;;;;;;;;;;5050448;28;20033;-73
2022/01/20 05:09:29;;;;;;;12.88;2.38;;;;;;;;;;5048466;28;20103;-73
2022/01/20 05:12:06;;;;;;;10.32;1.92;;;;;;;;;;5034429;28;20105;-74
2022/01/20 05:14:32;;;;;;;11.48;1.80;;;;;;;;;;5040189;28;20095;-74
2022/01/20 05:16:58;;;;;;;11.90;2.30;;;;;;;;;;5040331;28;20041;-77
2022/01/20 05:19:26;;;;;;;9.23;1.90;;;;;;;;;;5041328;28;20030;-75
2022/01/20 05:21:52;;;;;;;10.93;1.90;;;;;;;;;;5061293;28;20090;-75
2022/01/20 05:24:18;;;;;;;9.15;2.40;;;;;;;;;;5052938;28;20041;-75
2022/01/20 05:26:43;;;;;;;7.40;2.08;;;;;;;;;;5047226;28;20025;-75
2022/01/20 05:29:09;;;;;;;13.20;2.45;;;;;;;;;;5045907;28;20029;-70
2022/01/20 05:31:37;;;;;;;14.05;2.95;;;;;;;;;;5045744;28;20051;-74
2022/01/20 05:34:03;;;;;;;8.75;1.92;;;;;;;;;;5051168;28;20029;-75
2022/01/20 05:36:28;;;;;;;11.57;2.33;;;;;;;;;;5049014;28;20299;-73
2022/01/20 05:38:53;;;;;;;11.57;2.40;;;;;;;;;;5048408;28;20984;-71
2022/01/20 05:41:19;;;;;;;10.63;2.80;;;;;;;;;;5045079;28;20044;-71
2022/01/20 05:43:45;;;;;;;16.40;3.00;;;;;;;;;;5033534;28;20029;-73
2022/01/20 05:46:11;;;;;;;11.52;2.38;;;;;;;;;;5066039;28;20385;-70
2022/01/20 05:48:37;;;;;;;12.02;2.50;;;;;;;;;;5070138;28;20036;-71
2022/01/20 05:51:04;;;;;;;10.95;2.47;;;;;;;;;;5072033;28;20037;-71
2022/01/20 05:53:30;;;;;;;11.13;2.30;;;;;;;;;;5067970;28;20108;-71
2022/01/20 05:55:56;;;;;;;10.50;2.50;;;;;;;;;;5062607;28;20045;-71
2022/01/20 05:58:21;;;;;;;6.80;2.00;;;;;;;;;;5045169;28;20025;-71
2022/01/20 06:00:47;;;;;;;14.65;2.00;;;;;;;;;;5039346;28;20053;-72
2022/01/20 06:05:57;;;;;;;9.93;2.10;;;;;;;;;;5043328;28;21832;-63
2022/01/20 06:08:23;;;;;;;11.73;2.45;;;;;;;;;;5045340;28;20022;-68
2022/01/20 06:10:48;;;;;;;9.07;2.05;;;;;;;;;;5045111;28;20040;-69
2022/01/20 06:13:14;;;;;;;16.20;2.38;;;;;;;;;;5058443;28;20060;-70
2022/01/20 06:15:39;;;;;;;8.75;1.88;;;;;;;;;;5057705;28;20058;-71
2022/01/20 06:18:06;;;;;;;10.52;1.60;;;;;;;;;;5072737;28;20119;-70
2022/01/20 06:20:32;;;;;;;15.43;2.10;;;;;;;;;;5072839;28;20086;-70
2022/01/20 06:22:58;;;;;;;14.20;2.47;;;;;;;;;;5073188;28;20032;-71
2022/01/20 06:25:24;;;;;;;7.85;1.60;;;;;;;;;;5059470;28;20091;-72
2022/01/20 06:27:49;;;;;;;10.93;2.55;;;;;;;;;;5054259;28;20033;-72
2022/01/20 06:30:15;;;;;;;12.15;2.17;;;;;;;;;;5055467;28;20033;-70
2022/01/20 06:32:41;;;;;;;12.38;1.85;;;;;;;;;;5065713;28;20522;-75
2022/01/20 06:35:07;;;;;;;14.15;2.33;;;;;;;;;;5053924;28;20040;-74
2022/01/20 06:37:33;;;;;;;15.27;2.20;;;;;;;;;;5053486;28;20033;-71
2022/01/20 06:39:59;;;;;;;15.27;2.05;;;;;;;;;;5054153;28;20321;-69
2022/01/20 06:42:24;;;;;;;14.07;2.45;;;;;;;;;;5052694;28;20138;-69
2022/01/20 06:44:53;;;;;;;10.93;2.03;;;;;;;;;;5053319;28;20040;-74
2022/01/20 06:47:19;;;;;;;9.45;2.20;;;;;;;;;;5051865;28;20033;-72
2022/01/20 06:49:45;;;;;;;12.98;2.30;;;;;;;;;;5053838;28;20025;-65
2022/01/20 06:52:11;;;;;;;14.15;2.40;;;;;;;;;;5053082;28;20448;-64
2022/01/20 06:54:37;;;;;;;18.27;3.03;;;;;;;;;;5052193;28;20086;-69
2022/01/20 06:57:03;;;;;;;13.20;2.15;;;;;;;;;;5053909;28;20037;-67
2022/01/20 06:59:28;;;;;;;6.90;1.73;;;;;;;;;;5066995;28;20033;-66
2022/01/20 07:01:54;;;;;;;19.63;2.22;;;;;;;;;;5042576;28;20032;-70
2022/01/20 07:04:20;;;;;;;11.98;2.90;;;;;;;;;;5070563;28;20098;-71
2022/01/20 07:06:45;;;;;;;14.10;2.65;;;;;;;;;;5053869;28;20037;-68
2022/01/20 07:09:11;;;;;;;12.00;2.03;;;;;;;;;;5052911;28;20033;-67
2022/01/20 07:11:38;;;;;;;12.48;2.35;;;;;;;;;;5052039;28;20040;-67
2022/01/20 07:14:05;;;;;;;13.38;2.10;;;;;;;;;;5051313;28;20036;-71
2022/01/20 07:16:31;;;;;;;12.50;2.58;;;;;;;;;;5034805;28;20061;-69
2022/01/20 07:18:57;;;;;;;9.55;1.60;;;;;;;;;;5031912;28;20030;-70
2022/01/20 07:21:22;;;;;;;13.20;1.88;;;;;;;;;;5046220;28;20434;-74
2022/01/20 07:23:48;;;;;;;12.00;2.13;;;;;;;;;;5052331;28;20082;-73
2022/01/20 07:26:14;;;;;;;11.88;1.60;;;;;;;;;;5055060;28;20059;-68
2022/01/20 07:28:41;;;;;;;13.90;2.25;;;;;;;;;;5058117;28;20453;-72
2022/01/20 07:31:07;;;;;;;17.85;2.20;;;;;;;;;;5053458;28;20044;-71
2022/01/20 07:33:32;;;;;;;14.15;2.45;;;;;;;;;;5052117;28;20029;-68
2022/01/20 07:35:58;;;;;;;16.00;3.22;;;;;;;;;;5049558;28;20029;-75
2022/01/20 07:38:23;;;;;;;14.43;2.42;;;;;;;;;;5038355;28;20127;-73
2022/01/20 07:40:49;;;;;;;15.70;2.08;;;;;;;;;;5059230;28;20044;-70
2022/01/20 07:43:15;;;;;;;8.52;2.00;;;;;;;;;;5050809;28;20025;-74
2022/01/20 07:45:40;;;;;;;13.93;2.33;;;;;;;;;;5051098;28;20466;-75
2022/01/20 07:48:06;;;;;;;11.30;1.80;;;;;;;;;;5032618;28;20037;-68
2022/01/20 07:50:31;;;;;;;12.77;2.10;;;;;;;;;;5045598;28;20037;-69
2022/01/20 07:52:57;;;;;;;11.10;2.10;;;;;;;;;;5052742;28;20029;-69
2022/01/20 07:55:22;;;;;;;12.52;2.00;;;;;;;;;;5038724;28;20379;-73
2022/01/20 07:57:48;;;;;;;11.63;2.30;;;;;;;;;;5036116;28;20468;-72
2022/01/20 08:00:14;;;;;;;11.00;2.17;;;;;;;;;;5055543;28;20029;-70
2022/01/20 08:02:39;;;;;;;12.45;2.35;;;;;;;;;;5065775;28;20094;-75
2022/01/20 08:05:05;;;;;;;12.30;1.85;;;;;;;;;;5054479;28;20037;-76
2022/01/20 08:07:31;;;;;;;12.20;2.30;;;;;;;;;;5034699;28;20114;-78
2022/01/20 08:09:58;;;;;;;9.20;2.25;;;;;;;;;;5032155;28;20394;-73
2022/01/20 08:12:28;;;;;;;12.00;2.08;;;;;;;;;;5047724;28;20037;-77
2022/01/20 08:14:55;;;;;;;19.25;2.45;;;;;;;;;;5051584;28;20110;-75
2022/01/20 08:17:21;;;;;;;12.43;2.20;;;;;;;;;;5039590;28;20037;-74
2022/01/20 08:19:46;;;;;;;12.27;1.92;;;;;;;;;;5031826;28;20044;-74
2022/01/20 08:22:12;;;;;;;16.65;2.30;;;;;;;;;;5044098;28;20029;-69
2022/01/20 08:24:37;;;;;;;9.63;2.13;;;;;;;;;;5033901;28;20059;-69
2022/01/20 08:27:03;;;;;;;15.32;2.15;;;;;;;;;;5040464;28;20037;-70
2022/01/20 08:29:29;;;;;;;8.93;2.10;;;;;;;;;;5029887;28;20033;-69
2022/01/20 08:31:54;;;;;;;7.75;2.00;;;;;;;;;;5043897;28;20044;-70
2022/01/20 08:34:20;;;;;;;12.63;2.15;;;;;;;;;;5050886;28;20040;-72
2022/01/20 08:36:46;;;;;;;11.15;2.00;;;;;;;;;;5051467;28;20043;-72
2022/01/20 08:41:55;;;;;;;17.92;2.30;;;;;;;;;;5046416;28;20059;-79
2022/01/20 08:44:21;;;;;;;12.63;1.88;;;;;;;;;;5029664;28;20479;-79
2022/01/20 08:46:47;;;;;;;6.80;1.75;;;;;;;;;;5048713;28;20036;-76
2022/01/20 08:49:13;;;;;;;8.75;1.92;;;;;;;;;;5071100;28;20090;-76
2022/01/20 08:51:41;;;;;;;8.68;2.03;;;;;;;;;;5059066;28;20071;-76
2022/01/20 08:54:07;;;;;;;10.02;1.60;;;;;;;;;;5029067;28;20108;-71
2022/01/20 08:56:35;;;;;;;10.95;1.95;;;;;;;;;;5036552;28;20043;-72
2022/01/20 08:59:03;;;;;;;5.25;1.73;;;;;;;;;;5051504;28;20115;-76
2022/01/20 09:01:29;;;;;;;6.40;1.60;;;;;;;;;;5048047;28;20029;-78
2022/01/20 09:03:54;;;;;;;13.73;2.17;;;;;;;;;;5048078;28;20040;-73
2022/01/20 09:06:20;;;;;;;10.40;2.00;;;;;;;;;;5046486;28;20085;-73
2022/01/20 09:08:47;;;;;;;9.77;1.67;;;;;;;;;;5051552;28;20029;-71
2022/01/20 09:11:22;;;;;;;10.00;1.90;;;;;;;;;;5047347;28;20116;-71
2022/01/20 09:16:34;;;;;;;9.48;2.10;;;;;;;;;;5060610;28;20098;-72
2022/01/20 09:18:59;;;;;;;12.70;1.83;;;;;;;;;;5071549;28;20048;-71
2022/01/20 09:21:26;;;;;;;11.13;1.65;;;;;;;;;;5061164;28;20049;-71
2022/01/20 09:23:52;;;;;;;12.10;2.47;;;;;;;;;;5032494;28;20072;-70
2022/01/20 09:26:17;;;;;;;10.95;1.92;;;;;;;;;;5045962;28;20064;-71
2022/01/20 09:28:43;;;;;;;15.45;1.88;;;;;;;;;;5037502;28;20029;-72
2022/01/20 09:31:10;;;;;;;11.32;2.10;;;;;;;;;;5054086;28;20115;-71
2022/01/20 09:33:36;;;;;;;12.25;1.83;;;;;;;;;;5036619;28;20029;-71
2022/01/20 09:36:07;;;;;;;10.60;1.92;;;;;;;;;;5045702;28;20051;-70
2022/01/20 09:38:33;;;;;;;12.15;2.03;;;;;;;;;;5054114;28;20053;-69
2022/01/20 09:40:59;;;;;;;10.07;2.10;;;;;;;;;;5054902;28;20056;-69
2022/01/20 09:43:24;;;;;;;8.98;1.92;;;;;;;;;;5052212;28;20043;-66
2022/01/20 09:45:54;;;;;;;9.85;1.67;;;;;;;;;;5055325;28;20041;-70
2022/01/20 09:48:20;;;;;;;7.80;2.25;;;;;;;;;;5054408;28;20409;-69
2022/01/20 09:50:47;;;;;;;11.18;1.88;;;;;;;;;;5055078;28;20113;-68
2022/01/20 09:53:12;;;;;;;9.00;1.35;;;;;;;;;;5041990;28;20037;-67
2022/01/20 09:55:38;;;;;;;12.77;2.20;;;;;;;;;;5074553;28;20085;-69
2022/01/20 09:58:05;;;;;;;9.98;1.95;;;;;;;;;;5074386;28;20039;-66
2022/01/20 10:00:30;;;;;;;10.90;2.00;;;;;;;;;;5056111;28;20159;-68
2022/01/20 10:03:12;;;;;;;10.20;2.00;;;;;;;;;;5062467;28;20111;-68
2022/01/20 10:05:39;;;;;;;;;;;;;;;;;;5068318;28;20045;-68
2022/01/20 10:08:07;;;;;;;6.63;1.40;;;;;;;;;;5046924;28;19920;-65
2022/01/20 10:10:53;;;;;;;9.27;1.85;;;;;;;;;;5053858;28;20170;-68
2022/01/20 10:13:25;;;;;;;10.90;2.17;;;;;;;;;;5063440;28;20040;-67
2022/01/20 10:16:10;;;;;;;9.77;1.90;;;;;;;;;;5072417;28;20053;-70
2022/01/20 10:18:48;;;;;;;13.25;2.03;;;;;;;;;;5057787;28;20041;-66
2022/01/20 10:21:14;;;;;;;10.90;1.70;;;;;;;;;;5052819;28;20045;-65
2022/01/20 10:23:47;;;;;;;14.07;2.15;;;;;;;;;;5018517;28;20029;-70
2022/01/20 10:26:16;;;;;;;13.38;2.20;;;;;;;;;;5063870;28;20380;-68
2022/01/20 10:28:47;;;;;;;7.70;1.83;;;;;;;;;;5054321;28;20029;-71
2022/01/20 10:31:15;;;;;;;9.93;1.50;;;;;;;;;;5053372;28;20107;-70
2022/01/20 10:33:41;;;;;;;6.47;1.60;;;;;;;;;;5036162;28;20064;-66
2022/01/20 10:36:08;;;;;;;7.70;2.38;;;;;;;;;;5047340;28;20044;-66
2022/01/20 10:38:34;;;;;;;9.40;1.58;;;;;;;;;;5053158;28;20033;-66
2022/01/20 10:41:00;;;;;;;8.40;2.00;;;;;;;;;;5054236;28;20064;-70
2022/01/20 10:43:32;;;;;;;8.60;2.10;;;;;;;;;;5033736;28;20030;-70
2022/01/20 10:46:06;;;;;;;13.70;2.03;;;;;;;;;;5058019;28;20032;-72
2022/01/20 10:48:32;;;;;;;17.05;2.60;;;;;;;;;;5072624;28;20830;-71
2022/01/20 10:50:58;;;;;;;7.80;1.90;;;;;;;;;;5061611;28;20028;-71
2022/01/20 10:53:24;;;;;;;14.13;2.45;;;;;;;;;;5036100;28;20034;-67
2022/01/20 10:55:50;;;;;;;6.35;1.90;;;;;;;;;;5045174;28;20041;-71
2022/01/20 10:58:23;;;;;;;7.53;1.90;;;;;;;;;;5052635;28;20037;-67
2022/01/20 11:00:55;;;;;;;9.20;2.28;;;;;;;;;;5053545;28;20024;-72
2022/01/20 11:03:26;;;;;;;6.70;1.77;;;;;;;;;;5038012;28;20037;-70
2022/01/20 11:05:53;;;;;;;7.83;1.87;;;;;;;;;;5071113;28;20036;-74
2022/01/20 11:08:19;;;;;;;10.80;1.85;;;;;;;;;;5071952;28;20059;-72
2022/01/20 11:10:45;;;;;;;9.10;2.00;;;;;;;;;;5072961;28;20064;-71
2022/01/20 11:13:13;;;;;;;7.82;1.83;;;;;;;;;;5039428;28;20037;-68
2022/01/20 11:15:40;;;;;;;11.55;1.80;;;;;;;;;;5032922;28;20471;-72
2022/01/20 11:18:08;;;;;;;9.40;1.95;;;;;;;;;;5065812;28;20516;-72
2022/01/20 11:20:42;;;;;;;9.27;2.13;;;;;;;;;;5072476;28;20032;-72
2022/01/20 11:23:08;;;;;;;12.65;1.85;;;;;;;;;;5048128;28;20086;-66
2022/01/20 11:25:35;;;;;;;10.45;1.88;;;;;;;;;;5046006;28;20033;-70
2022/01/20 11:28:05;;;;;;;10.90;2.17;;;;;;;;;;5069243;28;20032;-72
2022/01/20 11:30:33;;;;;;;11.30;2.63;;;;;;;;;;5050584;28;20539;-66
2022/01/20 11:33:03;;;;;;;9.43;1.90;;;;;;;;;;5051605;28;20370;-67
2022/01/20 11:35:44;;;;;;;9.52;2.00;;;;;;;;;;5064680;28;20032;-72
2022/01/20 11:38:13;;;;;;;7.75;1.63;;;;;;;;;;5071683;28;20473;-69
2022/01/20 11:40:57;;;;;;;10.52;1.80;;;;;;;;;;5069573;28;20020;-67
2022/01/20 11:43:44;;;;;;;7.60;1.88;;;;;;;;;;5034736;28;20029;-71
2022/01/20 11:46:15;;;;;;;11.63;2.65;;;;;;;;;;5035629;28;20079;-69
2022/01/20 11:49:00;;;;;;;12.23;2.20;;;;;;;;;;5071879;28;20067;-73
2022/01/20 11:51:42;;;;;;;4.55;1.45;;;;;;;;;;5044242;28;20071;-72
2022/01/20 11:54:09;;;;;;;9.48;2.17;;;;;;;;;;5031989;28;20117;-69
2022/01/20 11:56:37;;;;;;;10.68;2.33;;;;;;;;;;5037493;28;20046;-73
2022/01/20 11:59:08;;;;;;;9.82;1.88;;;;;;;;;;5031153;28;20040;-70
2022/01/20 12:01:47;;;;;;;7.25;1.50;;;;;;;;;;5036678;28;20074;-75
2022/01/20 12:04:12;;;;;;;8.35;2.00;;;;;;;;;;5038295;28;20095;-73
2022/01/20 12:06:43;;;;;;;6.22;1.70;;;;;;;;;;5036930;28;20034;-76
2022/01/20 12:09:09;;;;;;;11.93;2.05;;;;;;;;;;5050255;28;20127;-69
2022/01/20 12:11:40;;;;;;;12.40;1.92;;;;;;;;;;5035116;28;20415;-75
2022/01/20 12:14:07;;;;;;;8.98;1.48;;;;;;;;;;5049967;28;20102;-73
2022/01/20 12:16:34;;;;;;;8.35;1.45;;;;;;;;;;5053354;28;20057;-69
2022/01/20 12:19:00;;;;;;;7.85;1.63;;;;;;;;;;5071872;28;20033;-76
2022/01/20 12:21:30;;;;;;;9.55;1.45;;;;;;;;;;5063296;28;20035;-74
2022/01/20 12:23:56;;;;;;;10.48;2.08;;;;;;;;;;5051430;28;20025;-77
2022/01/20 12:26:22;;;;;;;8.85;1.50;;;;;;;;;;5046500;28;20024;-77
2022/01/20 12:29:03;;;;;;;6.93;1.67;;;;;;;;;;5071705;28;20359;-74
2022/01/20 12:31:29;;;;;;;11.18;2.00;;;;;;;;;;5055980;28;20041;-75
2022/01/20 12:33:54;;;;;;;12.05;1.67;;;;;;;;;;5031980;28;20036;-73
2022/01/20 12:36:20;;;;;;;8.23;1.65;;;;;;;;;;5035316;28;20505;-73
2022/01/20 12:38:48;;;;;;;7.50;1.50;;;;;;;;;;5052289;28;20064;-71
2022/01/20 12:41:19;;;;;;;7.97;1.85;;;;;;;;;;5049107;28;20128;-72
2022/01/20 12:43:53;;;;;;;7.88;1.38;;;;;;;;;;5050396;28;20112;-70
2022/01/20 12:46:30;;;;;;;15.52;2.20;;;;;;;;;;5053610;28;20064;-75
2022/01/20 12:49:12;;;;;;;8.75;1.85;;;;;;;;;;5070791;28;20071;-71
2022/01/20 12:51:53;;;;;;;16.70;2.42;;;;;;;;;;5062373;28;20109;-71
2022/01/20 12:54:26;;;;;;;7.80;1.77;;;;;;;;;;5050286;28;20037;-76
2022/01/20 12:56:54;;;;;;;10.45;2.05;;;;;;;;;;5051223;28;20033;-73
2022/01/20 12:59:31;;;;;;;7.75;1.50;;;;;;;;;;5050539;28;20483;-67
2022/01/20 13:02:00;;;;;;;7.82;1.70;;;;;;;;;;5045781;28;20049;-75
2022/01/20 13:04:29;;;;;;;7.32;2.10;;;;;;;;;;5029088;28;20046;-74
2022/01/20 13:07:02;;;;;;;7.43;1.70;;;;;;;;;;5049087;28;20120;-75
2022/01/20 13:09:47;;;;;;;10.85;2.13;;;;;;;;;;5050496;28;20263;-76
2022/01/20 13:12:15;;;;;;;7.35;1.73;;;;;;;;;;5038845;28;20057;-67
2022/01/20 13:14:49;;;;;;;7.13;1.40;;;;;;;;;;5031788;28;20033;-69
2022/01/20 13:17:30;;;;;;;10.63;1.63;;;;;;;;;;5058466;28;20029;-76
2022/01/20 13:19:56;;;;;;;;;;;;;;;;;;5035664;28;20066;-70
2022/01/20 13:22:31;;;;;;;8.02;2.00;;;;;;;;;;5030561;28;19917;-76
2022/01/20 13:25:14;;;;;;;11.50;2.10;;;;;;;;;;5038238;28;20032;-74
2022/01/20 13:27:55;;;;;;;13.98;2.20;;;;;;;;;;5036161;28;20471;-69
2022/01/20 13:30:42;;;;;;;9.25;1.60;;;;;;;;;;5042912;28;20032;-68
2022/01/20 13:33:20;;;;;;;7.82;1.55;;;;;;;;;;5045357;28;20045;-70
2022/01/20 13:35:59;;;;;;;14.07;1.98;;;;;;;;;;5041993;28;20037;-69
2022/01/20 13:38:38;;;;;;;5.72;1.35;;;;;;;;;;5030495;28;20033;-69
2022/01/20 13:41:12;;;;;;;10.52;1.70;;;;;;;;;;5030042;28;20565;-67
2022/01/20 13:46:32;;;;;;;9.00;1.50;;;;;;;;;;5046450;28;20052;-69
2022/01/20 13:49:07;;;;;;;5.82;1.27;;;;;;;;;;5051181;28;20041;-71
2022/01/20 13:51:33;;;;;;;5.68;1.75;;;;;;;;;;5051037;28;20057;-70
2022/01/20 13:53:58;;;;;;;7.75;1.60;;;;;;;;;;5038070;28;20087;-71
2022/01/20 13:56:24;;;;;;;6.18;1.58;;;;;;;;;;5030516;28;20054;-70
2022/01/20 13:58:50;;;;;;;9.65;2.70;;;;;;;;;;5043818;28;20445;-69
2022/01/20 14:01:15;;;;;;;8.65;3.47;;;;;;;;;;5048829;28;20103;-70
2022/01/20 14:03:41;;;;;;;16.02;2.88;;;;;;;;;;5047590;28;20471;-75
2022/01/20 14:06:08;;;;;;;8.30;2.67;;;;;;;;;;5030990;28;20430;-74
2022/01/20 14:08:36;;;;;;;11.38;2.92;;;;;;;;;;5050966;28;20465;-72
2022/01/20 14:11:03;;;;;;;8.52;2.53;;;;;;;;;;5071005;28;20032;-75
2022/01/20 14:13:29;;;;;;;11.52;2.80;;;;;;;;;;5046897;28;20121;-72
2022/01/20 14:15:55;;;;;;;6.97;1.90;;;;;;;;;;5034421;28;20132;-72
2022/01/20 14:18:22;;;;;;;10.30;3.13;;;;;;;;;;5065100;28;20111;-74
2022/01/20 14:20:48;;;;;;;2.55;1.55;;;;;;;;;;5074387;28;20481;-78
2022/01/20 14:23:14;;;;;;;5.30;1.40;;;;;;;;;;5058230;28;20029;-73
2022/01/20 14:25:42;;;;;;;6.57;1.50;;;;;;;;;;5034292;28;20521;-72
2022/01/20 14:28:09;;;;;;;6.45;1.50;;;;;;;;;;5047410;28;20064;-70
2022/01/20 14:30:35;;;;;;;9.52;2.03;;;;;;;;;;5054104;28;20033;-73
2022/01/20 14:33:00;;;;;;;3.55;1.40;;;;;;;;;;5050961;28;20075;-73
2022/01/20 14:35:28;;;;;;;9.10;2.10;;;;;;;;;;5047147;28;20375;-77
2022/01/20 14:37:53;;;;;;;11.90;1.98;;;;;;;;;;5053991;28;20462;-73
2022/01/20 14:40:22;;;;;;;8.57;1.70;;;;;;;;;;5052955;28;20035;-73
2022/01/20 14:42:49;;;;;;;10.70;1.95;;;;;;;;;;5051586;28;20057;-74
2022/01/20 14:45:17;;;;;;;8.80;1.98;;;;;;;;;;5031995;28;20030;-75
2022/01/20 14:47:43;;;;;;;9.13;2.20;;;;;;;;;;5055124;28;20031;-71
2022/01/20 14:50:09;;;;;;;7.03;1.77;;;;;;;;;;5073750;28;20032;-66
2022/01/20 14:52:35;;;;;;;12.55;1.85;;;;;;;;;;5068802;28;20071;-74
2022/01/20 14:55:02;;;;;;;7.50;2.10;;;;;;;;;;5034056;28;20099;-78
2022/01/20 14:57:27;;;;;;;10.40;1.95;;;;;;;;;;5041349;28;20040;-72
2022/01/20 14:59:53;;;;;;;7.60;2.75;;;;;;;;;;5053376;28;20116;-76
2022/01/20 15:02:19;;;;;;;12.65;2.47;;;;;;;;;;5059669;28;20036;-77
2022/01/20 15:04:45;;;;;;;13.32;3.10;;;;;;;;;;5053115;28;20029;-78
2022/01/20 15:07:11;;;;;;;7.30;1.50;;;;;;;;;;5070801;28;20040;-69
2022/01/20 15:09:37;;;;;;;10.27;2.53;;;;;;;;;;5072763;28;20489;-73
2022/01/20 15:12:07;;;;;;;7.57;1.90;;;;;;;;;;5072272;28;20031;-77
2022/01/20 15:14:33;;;;;;;12.73;2.00;;;;;;;;;;5041159;28;20029;-77
2022/01/20 15:16:59;;;;;;;11.20;2.22;;;;;;;;;;5072951;28;20076;-78
2022/01/20 15:19:24;;;;;;;9.32;2.10;;;;;;;;;;5072601;28;20020;-77
2022/01/20 15:21:49;;;;;;;7.45;2.00;;;;;;;;;;5053748;28;20025;-76
2022/01/20 15:24:15;;;;;;;8.27;2.13;;;;;;;;;;5036238;28;20034;-78
2022/01/20 15:26:42;;;;;;;6.78;1.80;;;;;;;;;;5034602;28;20422;-78
2022/01/20 15:29:08;;;;;;;13.32;1.90;;;;;;;;;;5033288;28;20037;-75
2022/01/20 15:31:36;;;;;;;8.93;2.05;;;;;;;;;;5049921;28;20055;-71
2022/01/20 15:34:04;;;;;;;10.15;1.98;;;;;;;;;;5040497;28;20041;-77
2022/01/20 15:36:30;;;;;;;9.50;1.85;;;;;;;;;;5049624;28;20623;-77
2022/01/20 15:38:55;;;;;;;7.85;1.60;;;;;;;;;;5051824;28;20032;-77
2022/01/20 15:41:21;;;;;;;9.70;1.67;;;;;;;;;;5067367;28;20040;-75
2022/01/20 15:43:46;;;;;;;14.48;2.05;;;;;;;;;;5054741;28;20091;-77
2022/01/20 15:46:12;;;;;;;8.23;1.85;;;;;;;;;;5047663;28;20033;-68
2022/01/20 15:48:37;;;;;;;10.00;1.75;;;;;;;;;;5052751;28;20390;-70
2022/01/20 15:51:04;;;;;;;9.23;2.00;;;;;;;;;;5065499;28;20487;-71
2022/01/20 15:53:29;;;;;;;6.40;1.42;;;;;;;;;;5061680;28;20025;-73
2022/01/20 15:55:55;;;;;;;10.52;2.58;;;;;;;;;;5052180;28;20055;-75
2022/01/20 15:58:20;;;;;;;5.97;1.58;;;;;;;;;;5051711;28;20028;-77